sensor_id;sensor_type;location;lat;lon;timestamp;P1;durP1;ratioP1;P2;durP2;ratioP2
27491;SDS011;14927;51.210;6.838;2022-08-01T00:01:51;8.50;;;2.40;;
27491;SDS011;14927;51.210;6.838;2022-08-01T00:04:36;6.53;;;2.45;;
27491;SDS011;14927;51.210;6.838;2022-08-01T00:07:20;3.58;;;2.05;;
27491;SDS011;14927;51.210;6.838;2022-08-01T00:10:06;4.65;;;2.05;;
27491;SDS011;14927;51.210;6.838;2022-08-01T00:12:54;4.85;;;2.30;;
27491;SDS011;14927;51.210;6.838;2022-08-01T00:15:39;7.03;;;2.50;;
27491;SDS011;14927;51.210;6.838;2022-08-01T00:18:23;5.47;;;3.08;;
27491;SDS011;14927;51.210;6.838;2022-08-01T00:21:08;6.07;;;2.35;;
27491;SDS011;14927;51.210;6.838;2022-08-01T00:23:53;5.78;;;2.28;;
27491;SDS011;14927;51.210;6.838;2022-08-01T00:26:37;3.92;;;2.40;;
27491;SDS011;14927;51.210;6.838;2022-08-01T00:29:22;4.55;;;1.98;;
27491;SDS011;14927;51.210;6.838;2022-08-01T00:32:06;3.20;;;2.10;;
27491;SDS011;14927;51.210;6.838;2022-08-01T00:34:51;4.88;;;2.38;;
27491;SDS011;14927;51.210;6.838;2022-08-01T00:37:36;4.07;;;2.58;;
27491;SDS011;14927;51.210;6.838;2022-08-01T00:40:20;5.03;;;2.25;;
27491;SDS011;14927;51.210;6.838;2022-08-01T00:43:05;2.88;;;2.38;;
27491;SDS011;14927;51.210;6.838;2022-08-01T00:45:50;3.92;;;2.40;;
27491;SDS011;14927;51.210;6.838;2022-08-01T00:48:34;5.07;;;2.47;;
27491;SDS011;14927;51.210;6.838;2022-08-01T00:51:19;7.03;;;2.53;;
27491;SDS011;14927;51.210;6.838;2022-08-01T00:54:03;3.45;;;2.05;;
27491;SDS011;14927;51.210;6.838;2022-08-01T00:56:48;2.83;;;2.40;;
27491;SDS011;14927;51.210;6.838;2022-08-01T00:59:33;4.85;;;3.35;;
27491;SDS011;14927;51.210;6.838;2022-08-01T01:02:18;6.00;;;3.45;;
27491;SDS011;14927;51.210;6.838;2022-08-01T01:05:03;5.07;;;2.95;;
27491;SDS011;14927;51.210;6.838;2022-08-01T01:07:50;4.25;;;3.00;;
27491;SDS011;14927;51.210;6.838;2022-08-01T01:10:48;5.80;;;3.30;;
27491;SDS011;14927;51.210;6.838;2022-08-01T01:13:45;6.93;;;2.88;;
27491;SDS011;14927;51.210;6.838;2022-08-01T01:16:34;4.13;;;2.92;;
27491;SDS011;14927;51.210;6.838;2022-08-01T01:19:24;5.70;;;3.50;;
27491;SDS011;14927;51.210;6.838;2022-08-01T01:22:32;3.95;;;2.83;;
27491;SDS011;14927;51.210;6.838;2022-08-01T01:32:07;5.50;;;3.03;;
27491;SDS011;14927;51.210;6.838;2022-08-01T01:35:18;4.85;;;2.95;;
27491;SDS011;14927;51.210;6.838;2022-08-01T01:38:09;4.32;;;2.80;;
27491;SDS011;14927;51.210;6.838;2022-08-01T01:40:59;2.97;;;2.38;;
27491;SDS011;14927;51.210;6.838;2022-08-01T01:43:46;9.32;;;3.00;;
27491;SDS011;14927;51.210;6.838;2022-08-01T01:46:31;4.72;;;3.20;;
27491;SDS011;14927;51.210;6.838;2022-08-01T01:49:16;4.05;;;2.78;;
27491;SDS011;14927;51.210;6.838;2022-08-01T01:52:07;6.13;;;3.50;;
27491;SDS011;14927;51.210;6.838;2022-08-01T01:54:52;5.15;;;2.85;;
27491;SDS011;14927;51.210;6.838;2022-08-01T01:57:40;6.50;;;3.38;;
27491;SDS011;14927;51.210;6.838;2022-08-01T02:00:26;7.72;;;3.42;;
27491;SDS011;14927;51.210;6.838;2022-08-01T02:03:12;4.40;;;3.25;;
27491;SDS011;14927;51.210;6.838;2022-08-01T02:05:58;6.30;;;2.97;;
27491;SDS011;14927;51.210;6.838;2022-08-01T02:08:44;5.88;;;3.22;;
27491;SDS011;14927;51.210;6.838;2022-08-01T02:11:30;5.07;;;3.17;;
27491;SDS011;14927;51.210;6.838;2022-08-01T02:14:16;5.68;;;3.10;;
27491;SDS011;14927;51.210;6.838;2022-08-01T02:17:03;6.50;;;3.03;;
27491;SDS011;14927;51.210;6.838;2022-08-01T02:19:47;5.05;;;2.80;;
27491;SDS011;14927;51.210;6.838;2022-08-01T02:22:33;4.47;;;2.80;;
27491;SDS011;14927;51.210;6.838;2022-08-01T02:25:25;6.72;;;3.38;;
27491;SDS011;14927;51.210;6.838;2022-08-01T02:28:17;3.42;;;2.55;;
27491;SDS011;14927;51.210;6.838;2022-08-01T02:31:11;6.93;;;3.38;;
27491;SDS011;14927;51.210;6.838;2022-08-01T02:34:00;6.28;;;3.70;;
27491;SDS011;14927;51.210;6.838;2022-08-01T02:36:49;6.30;;;3.88;;
27491;SDS011;14927;51.210;6.838;2022-08-01T02:39:36;5.07;;;3.42;;
27491;SDS011;14927;51.210;6.838;2022-08-01T02:42:23;7.63;;;4.22;;
27491;SDS011;14927;51.210;6.838;2022-08-01T02:45:11;6.15;;;3.53;;
27491;SDS011;14927;51.210;6.838;2022-08-01T02:47:59;6.22;;;3.95;;
27491;SDS011;14927;51.210;6.838;2022-08-01T02:50:51;9.70;;;4.70;;
27491;SDS011;14927;51.210;6.838;2022-08-01T02:53:39;9.10;;;4.68;;
27491;SDS011;14927;51.210;6.838;2022-08-01T02:56:26;8.50;;;4.90;;
27491;SDS011;14927;51.210;6.838;2022-08-01T02:59:18;6.70;;;4.50;;
27491;SDS011;14927;51.210;6.838;2022-08-01T03:02:09;8.40;;;4.88;;
27491;SDS011;14927;51.210;6.838;2022-08-01T03:04:54;7.07;;;4.82;;
27491;SDS011;14927;51.210;6.838;2022-08-01T03:07:41;8.02;;;5.25;;
27491;SDS011;14927;51.210;6.838;2022-08-01T03:10:26;9.55;;;5.45;;
27491;SDS011;14927;51.210;6.838;2022-08-01T03:13:13;9.77;;;5.13;;
27491;SDS011;14927;51.210;6.838;2022-08-01T03:15:59;10.80;;;5.18;;
27491;SDS011;14927;51.210;6.838;2022-08-01T03:18:44;12.10;;;5.70;;
27491;SDS011;14927;51.210;6.838;2022-08-01T03:21:30;12.35;;;5.75;;
27491;SDS011;14927;51.210;6.838;2022-08-01T03:24:18;10.90;;;5.38;;
27491;SDS011;14927;51.210;6.838;2022-08-01T03:27:05;9.95;;;5.57;;
27491;SDS011;14927;51.210;6.838;2022-08-01T03:29:52;9.60;;;5.10;;
27491;SDS011;14927;51.210;6.838;2022-08-01T03:32:39;8.15;;;4.88;;
27491;SDS011;14927;51.210;6.838;2022-08-01T03:35:26;10.95;;;6.63;;
27491;SDS011;14927;51.210;6.838;2022-08-01T03:38:18;10.80;;;6.22;;
27491;SDS011;14927;51.210;6.838;2022-08-01T03:43:57;16.00;;;6.00;;
27491;SDS011;14927;51.210;6.838;2022-08-01T03:46:51;11.77;;;6.65;;
27491;SDS011;14927;51.210;6.838;2022-08-01T03:49:46;14.10;;;6.95;;
27491;SDS011;14927;51.210;6.838;2022-08-01T03:52:34;12.68;;;7.10;;
27491;SDS011;14927;51.210;6.838;2022-08-01T03:55:22;12.68;;;7.30;;
27491;SDS011;14927;51.210;6.838;2022-08-01T03:58:09;11.20;;;7.15;;
27491;SDS011;14927;51.210;6.838;2022-08-01T04:00:54;14.30;;;7.78;;
27491;SDS011;14927;51.210;6.838;2022-08-01T04:03:39;13.43;;;7.53;;
27491;SDS011;14927;51.210;6.838;2022-08-01T04:06:24;15.27;;;8.13;;
27491;SDS011;14927;51.210;6.838;2022-08-01T04:09:09;14.95;;;8.40;;
27491;SDS011;14927;51.210;6.838;2022-08-01T04:11:58;18.08;;;9.27;;
27491;SDS011;14927;51.210;6.838;2022-08-01T04:14:44;10.60;;;7.93;;
27491;SDS011;14927;51.210;6.838;2022-08-01T04:17:29;17.15;;;10.02;;
27491;SDS011;14927;51.210;6.838;2022-08-01T04:20:13;17.10;;;8.98;;
27491;SDS011;14927;51.210;6.838;2022-08-01T04:22:59;13.48;;;8.68;;
27491;SDS011;14927;51.210;6.838;2022-08-01T04:25:44;14.02;;;8.30;;
27491;SDS011;14927;51.210;6.838;2022-08-01T04:28:31;14.63;;;8.82;;
27491;SDS011;14927;51.210;6.838;2022-08-01T04:31:20;12.05;;;8.38;;
27491;SDS011;14927;51.210;6.838;2022-08-01T04:34:06;16.02;;;9.68;;
27491;SDS011;14927;51.210;6.838;2022-08-01T04:36:54;11.60;;;8.45;;
27491;SDS011;14927;51.210;6.838;2022-08-01T04:39:39;16.85;;;9.70;;
27491;SDS011;14927;51.210;6.838;2022-08-01T04:42:26;14.35;;;9.63;;
27491;SDS011;14927;51.210;6.838;2022-08-01T04:45:11;18.15;;;10.07;;
27491;SDS011;14927;51.210;6.838;2022-08-01T04:47:56;17.50;;;10.27;;
27491;SDS011;14927;51.210;6.838;2022-08-01T04:50:41;12.90;;;9.38;;
27491;SDS011;14927;51.210;6.838;2022-08-01T04:53:26;16.67;;;10.70;;
27491;SDS011;14927;51.210;6.838;2022-08-01T04:56:18;17.77;;;10.40;;
27491;SDS011;14927;51.210;6.838;2022-08-01T04:59:04;15.27;;;9.68;;
27491;SDS011;14927;51.210;6.838;2022-08-01T05:02:08;17.00;;;10.00;;
27491;SDS011;14927;51.210;6.838;2022-08-01T05:04:58;16.33;;;10.32;;
27491;SDS011;14927;51.210;6.838;2022-08-01T05:07:43;14.75;;;10.50;;
27491;SDS011;14927;51.210;6.838;2022-08-01T05:10:27;17.55;;;10.70;;
27491;SDS011;14927;51.210;6.838;2022-08-01T05:13:12;14.52;;;10.60;;
27491;SDS011;14927;51.210;6.838;2022-08-01T05:15:56;14.90;;;10.65;;
27491;SDS011;14927;51.210;6.838;2022-08-01T05:18:41;15.70;;;10.13;;
27491;SDS011;14927;51.210;6.838;2022-08-01T05:21:26;15.00;;;9.82;;
27491;SDS011;14927;51.210;6.838;2022-08-01T05:24:10;13.40;;;10.07;;
27491;SDS011;14927;51.210;6.838;2022-08-01T05:26:56;13.55;;;9.57;;
27491;SDS011;14927;51.210;6.838;2022-08-01T05:29:41;15.23;;;10.63;;
27491;SDS011;14927;51.210;6.838;2022-08-01T05:32:26;14.50;;;9.88;;
27491;SDS011;14927;51.210;6.838;2022-08-01T05:35:12;13.73;;;10.32;;
27491;SDS011;14927;51.210;6.838;2022-08-01T05:37:57;12.70;;;9.68;;
27491;SDS011;14927;51.210;6.838;2022-08-01T05:40:42;14.30;;;10.02;;
27491;SDS011;14927;51.210;6.838;2022-08-01T05:43:26;15.13;;;9.70;;
27491;SDS011;14927;51.210;6.838;2022-08-01T05:46:11;14.45;;;9.63;;
27491;SDS011;14927;51.210;6.838;2022-08-01T05:48:56;11.13;;;9.02;;
27491;SDS011;14927;51.210;6.838;2022-08-01T05:51:42;11.43;;;8.50;;
27491;SDS011;14927;51.210;6.838;2022-08-01T05:54:27;17.48;;;9.90;;
27491;SDS011;14927;51.210;6.838;2022-08-01T05:57:11;11.93;;;8.98;;
27491;SDS011;14927;51.210;6.838;2022-08-01T05:59:56;13.30;;;9.35;;
27491;SDS011;14927;51.210;6.838;2022-08-01T06:02:41;15.05;;;10.00;;
27491;SDS011;14927;51.210;6.838;2022-08-01T06:05:27;13.77;;;10.52;;
27491;SDS011;14927;51.210;6.838;2022-08-01T06:08:12;13.75;;;9.80;;
27491;SDS011;14927;51.210;6.838;2022-08-01T06:10:56;13.77;;;10.55;;
27491;SDS011;14927;51.210;6.838;2022-08-01T06:13:41;15.23;;;10.10;;
27491;SDS011;14927;51.210;6.838;2022-08-01T06:16:26;11.50;;;9.23;;
27491;SDS011;14927;51.210;6.838;2022-08-01T06:19:11;12.88;;;9.75;;
27491;SDS011;14927;51.210;6.838;2022-08-01T06:21:55;14.57;;;9.70;;
27491;SDS011;14927;51.210;6.838;2022-08-01T06:24:40;15.52;;;10.10;;
27491;SDS011;14927;51.210;6.838;2022-08-01T06:27:24;14.00;;;9.85;;
27491;SDS011;14927;51.210;6.838;2022-08-01T06:30:09;15.13;;;8.90;;
27491;SDS011;14927;51.210;6.838;2022-08-01T06:32:54;12.40;;;9.68;;
27491;SDS011;14927;51.210;6.838;2022-08-01T06:35:42;14.27;;;10.45;;
27491;SDS011;14927;51.210;6.838;2022-08-01T06:38:26;13.98;;;9.60;;
27491;SDS011;14927;51.210;6.838;2022-08-01T06:41:11;14.98;;;9.40;;
27491;SDS011;14927;51.210;6.838;2022-08-01T06:43:56;13.02;;;9.82;;
27491;SDS011;14927;51.210;6.838;2022-08-01T06:46:40;12.10;;;9.30;;
27491;SDS011;14927;51.210;6.838;2022-08-01T06:49:25;15.82;;;10.23;;
27491;SDS011;14927;51.210;6.838;2022-08-01T06:52:10;11.93;;;9.48;;
27491;SDS011;14927;51.210;6.838;2022-08-01T06:54:54;13.57;;;10.73;;
27491;SDS011;14927;51.210;6.838;2022-08-01T06:57:46;14.30;;;9.57;;
27491;SDS011;14927;51.210;6.838;2022-08-01T07:00:35;11.77;;;8.32;;
27491;SDS011;14927;51.210;6.838;2022-08-01T07:03:19;13.07;;;8.55;;
27491;SDS011;14927;51.210;6.838;2022-08-01T07:06:04;10.93;;;7.88;;
27491;SDS011;14927;51.210;6.838;2022-08-01T07:08:49;8.70;;;6.75;;
27491;SDS011;14927;51.210;6.838;2022-08-01T07:11:33;7.32;;;5.07;;
27491;SDS011;14927;51.210;6.838;2022-08-01T07:14:19;5.78;;;4.47;;
27491;SDS011;14927;51.210;6.838;2022-08-01T07:17:04;6.97;;;4.40;;
27491;SDS011;14927;51.210;6.838;2022-08-01T07:19:48;7.80;;;4.18;;
27491;SDS011;14927;51.210;6.838;2022-08-01T07:22:33;15.25;;;5.00;;
27491;SDS011;14927;51.210;6.838;2022-08-01T07:25:18;6.25;;;4.53;;
27491;SDS011;14927;51.210;6.838;2022-08-01T07:28:02;4.03;;;3.50;;
27491;SDS011;14927;51.210;6.838;2022-08-01T07:30:47;5.50;;;3.80;;
27491;SDS011;14927;51.210;6.838;2022-08-01T07:33:33;7.10;;;3.45;;
27491;SDS011;14927;51.210;6.838;2022-08-01T07:36:18;4.53;;;3.05;;
27491;SDS011;14927;51.210;6.838;2022-08-01T07:39:03;3.03;;;2.72;;
27491;SDS011;14927;51.210;6.838;2022-08-01T07:41:47;5.00;;;3.13;;
27491;SDS011;14927;51.210;6.838;2022-08-01T07:44:32;3.40;;;3.10;;
27491;SDS011;14927;51.210;6.838;2022-08-01T07:47:22;3.72;;;3.10;;
27491;SDS011;14927;51.210;6.838;2022-08-01T07:50:08;4.20;;;3.30;;
27491;SDS011;14927;51.210;6.838;2022-08-01T07:52:54;7.87;;;3.80;;
27491;SDS011;14927;51.210;6.838;2022-08-01T07:55:38;5.75;;;3.40;;
27491;SDS011;14927;51.210;6.838;2022-08-01T07:58:23;6.25;;;4.00;;
27491;SDS011;14927;51.210;6.838;2022-08-01T08:01:07;5.47;;;3.88;;
27491;SDS011;14927;51.210;6.838;2022-08-01T08:03:52;4.35;;;3.80;;
27491;SDS011;14927;51.210;6.838;2022-08-01T08:06:36;8.57;;;4.10;;
27491;SDS011;14927;51.210;6.838;2022-08-01T08:09:21;5.63;;;4.03;;
27491;SDS011;14927;51.210;6.838;2022-08-01T08:12:06;6.57;;;3.90;;
27491;SDS011;14927;51.210;6.838;2022-08-01T08:14:51;4.85;;;4.30;;
27491;SDS011;14927;51.210;6.838;2022-08-01T08:17:35;4.70;;;3.80;;
27491;SDS011;14927;51.210;6.838;2022-08-01T08:20:20;7.30;;;4.32;;
27491;SDS011;14927;51.210;6.838;2022-08-01T08:23:08;7.95;;;4.50;;
27491;SDS011;14927;51.210;6.838;2022-08-01T08:26:11;6.90;;;4.57;;
27491;SDS011;14927;51.210;6.838;2022-08-01T08:28:56;6.40;;;4.75;;
27491;SDS011;14927;51.210;6.838;2022-08-01T08:31:40;7.05;;;5.45;;
27491;SDS011;14927;51.210;6.838;2022-08-01T08:34:25;6.25;;;4.47;;
27491;SDS011;14927;51.210;6.838;2022-08-01T08:37:11;5.22;;;4.05;;
27491;SDS011;14927;51.210;6.838;2022-08-01T08:39:56;5.45;;;4.38;;
27491;SDS011;14927;51.210;6.838;2022-08-01T08:42:40;5.10;;;3.90;;
27491;SDS011;14927;51.210;6.838;2022-08-01T08:45:25;5.95;;;4.25;;
27491;SDS011;14927;51.210;6.838;2022-08-01T08:48:11;6.28;;;4.22;;
27491;SDS011;14927;51.210;6.838;2022-08-01T08:50:56;4.93;;;3.58;;
27491;SDS011;14927;51.210;6.838;2022-08-01T08:53:44;4.28;;;3.42;;
27491;SDS011;14927;51.210;6.838;2022-08-01T08:56:30;5.13;;;3.50;;
27491;SDS011;14927;51.210;6.838;2022-08-01T08:59:17;3.15;;;2.42;;
27491;SDS011;14927;51.210;6.838;2022-08-01T09:02:04;3.60;;;2.67;;
27491;SDS011;14927;51.210;6.838;2022-08-01T09:04:49;3.63;;;2.35;;
27491;SDS011;14927;51.210;6.838;2022-08-01T09:07:34;2.83;;;1.95;;
27491;SDS011;14927;51.210;6.838;2022-08-01T09:10:19;4.00;;;2.55;;
27491;SDS011;14927;51.210;6.838;2022-08-01T09:15:54;4.43;;;2.67;;
27491;SDS011;14927;51.210;6.838;2022-08-01T09:18:42;5.78;;;2.42;;
27491;SDS011;14927;51.210;6.838;2022-08-01T09:21:28;2.90;;;2.33;;
27491;SDS011;14927;51.210;6.838;2022-08-01T09:24:14;1.65;;;1.52;;
27491;SDS011;14927;51.210;6.838;2022-08-01T09:27:00;1.80;;;1.52;;
27491;SDS011;14927;51.210;6.838;2022-08-01T09:30:33;1.75;;;1.65;;
27491;SDS011;14927;51.210;6.838;2022-08-01T09:33:11;2.25;;;1.92;;
27491;SDS011;14927;51.210;6.838;2022-08-01T09:35:56;2.22;;;2.00;;
27491;SDS011;14927;51.210;6.838;2022-08-01T09:38:41;3.28;;;2.42;;
27491;SDS011;14927;51.210;6.838;2022-08-01T09:41:29;2.85;;;2.35;;
27491;SDS011;14927;51.210;6.838;2022-08-01T09:44:16;3.22;;;2.42;;
27491;SDS011;14927;51.210;6.838;2022-08-01T09:47:12;2.90;;;2.20;;
27491;SDS011;14927;51.210;6.838;2022-08-01T09:49:57;3.97;;;2.28;;
27491;SDS011;14927;51.210;6.838;2022-08-01T09:55:38;2.63;;;2.33;;
27491;SDS011;14927;51.210;6.838;2022-08-01T09:58:23;3.90;;;2.10;;
27491;SDS011;14927;51.210;6.838;2022-08-01T10:01:08;4.15;;;3.05;;
27491;SDS011;14927;51.210;6.838;2022-08-01T10:04:12;2.45;;;2.25;;
27491;SDS011;14927;51.210;6.838;2022-08-01T10:09:51;2.53;;;2.20;;
27491;SDS011;14927;51.210;6.838;2022-08-01T10:12:38;2.55;;;1.98;;
27491;SDS011;14927;51.210;6.838;2022-08-01T10:15:27;2.38;;;2.00;;
27491;SDS011;14927;51.210;6.838;2022-08-01T10:18:14;2.50;;;2.30;;
27491;SDS011;14927;51.210;6.838;2022-08-01T10:21:02;2.22;;;1.92;;
27491;SDS011;14927;51.210;6.838;2022-08-01T10:23:47;2.58;;;2.00;;
27491;SDS011;14927;51.210;6.838;2022-08-01T10:26:33;2.22;;;1.80;;
27491;SDS011;14927;51.210;6.838;2022-08-01T10:29:19;2.33;;;1.80;;
27491;SDS011;14927;51.210;6.838;2022-08-01T10:32:05;4.80;;;1.92;;
27491;SDS011;14927;51.210;6.838;2022-08-01T10:34:53;4.57;;;2.35;;
27491;SDS011;14927;51.210;6.838;2022-08-01T10:37:38;1.52;;;1.42;;
27491;SDS011;14927;51.210;6.838;2022-08-01T10:40:23;4.72;;;1.00;;
27491;SDS011;14927;51.210;6.838;2022-08-01T10:43:10;2.45;;;1.20;;
27491;SDS011;14927;51.210;6.838;2022-08-01T10:45:56;1.73;;;1.30;;
27491;SDS011;14927;51.210;6.838;2022-08-01T10:51:36;2.03;;;1.33;;
27491;SDS011;14927;51.210;6.838;2022-08-01T10:54:25;2.35;;;1.20;;
27491;SDS011;14927;51.210;6.838;2022-08-01T10:57:10;2.72;;;1.05;;
27491;SDS011;14927;51.210;6.838;2022-08-01T10:59:55;2.45;;;0.80;;
27491;SDS011;14927;51.210;6.838;2022-08-01T11:02:56;1.23;;;1.10;;
27491;SDS011;14927;51.210;6.838;2022-08-01T11:05:47;1.50;;;0.85;;
27491;SDS011;14927;51.210;6.838;2022-08-01T11:08:36;1.67;;;1.10;;
27491;SDS011;14927;51.210;6.838;2022-08-01T11:11:22;3.85;;;1.10;;
27491;SDS011;14927;51.210;6.838;2022-08-01T11:14:06;2.55;;;1.10;;
27491;SDS011;14927;51.210;6.838;2022-08-01T11:16:53;1.05;;;0.70;;
27491;SDS011;14927;51.210;6.838;2022-08-01T11:28:31;6.07;;;0.82;;
27491;SDS011;14927;51.210;6.838;2022-08-01T11:34:00;3.67;;;0.82;;
27491;SDS011;14927;51.210;6.838;2022-08-01T11:36:45;1.00;;;0.70;;
27491;SDS011;14927;51.210;6.838;2022-08-01T11:39:30;1.65;;;0.75;;
27491;SDS011;14927;51.210;6.838;2022-08-01T11:42:18;1.67;;;0.55;;
27491;SDS011;14927;51.210;6.838;2022-08-01T11:45:04;2.58;;;0.70;;
27491;SDS011;14927;51.210;6.838;2022-08-01T11:47:50;1.45;;;0.80;;
27491;SDS011;14927;51.210;6.838;2022-08-01T11:50:35;4.32;;;1.00;;
27491;SDS011;14927;51.210;6.838;2022-08-01T11:53:20;3.08;;;1.33;;
27491;SDS011;14927;51.210;6.838;2022-08-01T11:56:05;0.95;;;0.70;;
27491;SDS011;14927;51.210;6.838;2022-08-01T11:58:50;2.63;;;1.40;;
27491;SDS011;14927;51.210;6.838;2022-08-01T12:01:43;0.65;;;0.65;;
27491;SDS011;14927;51.210;6.838;2022-08-01T12:04:43;8.77;;;2.47;;
27491;SDS011;14927;51.210;6.838;2022-08-01T12:07:35;2.25;;;1.00;;
27491;SDS011;14927;51.210;6.838;2022-08-01T12:10:20;1.80;;;1.00;;
27491;SDS011;14927;51.210;6.838;2022-08-01T12:13:08;3.83;;;0.75;;
27491;SDS011;14927;51.210;6.838;2022-08-01T12:15:53;1.00;;;0.70;;
27491;SDS011;14927;51.210;6.838;2022-08-01T12:18:38;3.55;;;1.23;;
27491;SDS011;14927;51.210;6.838;2022-08-01T12:21:26;3.28;;;1.30;;
27491;SDS011;14927;51.210;6.838;2022-08-01T12:24:10;2.88;;;1.00;;
27491;SDS011;14927;51.210;6.838;2022-08-01T12:26:55;2.05;;;0.85;;
27491;SDS011;14927;51.210;6.838;2022-08-01T12:29:40;2.90;;;0.80;;
27491;SDS011;14927;51.210;6.838;2022-08-01T12:35:23;0.70;;;0.60;;
27491;SDS011;14927;51.210;6.838;2022-08-01T12:38:20;0.70;;;0.70;;
27491;SDS011;14927;51.210;6.838;2022-08-01T12:41:06;0.70;;;0.65;;
27491;SDS011;14927;51.210;6.838;2022-08-01T12:43:54;0.50;;;0.50;;
27491;SDS011;14927;51.210;6.838;2022-08-01T12:46:39;3.05;;;0.50;;
27491;SDS011;14927;51.210;6.838;2022-08-01T12:49:25;0.40;;;0.40;;
27491;SDS011;14927;51.210;6.838;2022-08-01T12:52:11;0.65;;;0.65;;
27491;SDS011;14927;51.210;6.838;2022-08-01T12:54:59;5.47;;;0.70;;
27491;SDS011;14927;51.210;6.838;2022-08-01T12:58:06;0.50;;;0.50;;
27491;SDS011;14927;51.210;6.838;2022-08-01T13:01:02;0.73;;;0.70;;
27491;SDS011;14927;51.210;6.838;2022-08-01T13:03:59;1.35;;;0.70;;
27491;SDS011;14927;51.210;6.838;2022-08-01T13:06:47;0.70;;;0.50;;
27491;SDS011;14927;51.210;6.838;2022-08-01T13:09:36;0.47;;;0.47;;
27491;SDS011;14927;51.210;6.838;2022-08-01T13:12:33;1.08;;;0.70;;
27491;SDS011;14927;51.210;6.838;2022-08-01T13:15:19;0.75;;;0.60;;
27491;SDS011;14927;51.210;6.838;2022-08-01T13:18:29;0.93;;;0.68;;
27491;SDS011;14927;51.210;6.838;2022-08-01T13:24:10;2.35;;;0.70;;
27491;SDS011;14927;51.210;6.838;2022-08-01T13:26:57;0.70;;;0.70;;
27491;SDS011;14927;51.210;6.838;2022-08-01T13:29:49;2.15;;;0.73;;
27491;SDS011;14927;51.210;6.838;2022-08-01T13:32:36;0.63;;;0.60;;
27491;SDS011;14927;51.210;6.838;2022-08-01T13:35:21;0.50;;;0.50;;
27491;SDS011;14927;51.210;6.838;2022-08-01T13:38:06;1.05;;;0.60;;
27491;SDS011;14927;51.210;6.838;2022-08-01T13:40:57;2.15;;;0.65;;
27491;SDS011;14927;51.210;6.838;2022-08-01T13:43:42;0.60;;;0.60;;
27491;SDS011;14927;51.210;6.838;2022-08-01T13:46:26;2.67;;;0.50;;
27491;SDS011;14927;51.210;6.838;2022-08-01T13:49:11;0.40;;;0.40;;
27491;SDS011;14927;51.210;6.838;2022-08-01T13:51:56;1.60;;;0.80;;
27491;SDS011;14927;51.210;6.838;2022-08-01T13:54:41;0.45;;;0.45;;
27491;SDS011;14927;51.210;6.838;2022-08-01T13:57:26;0.70;;;0.60;;
27491;SDS011;14927;51.210;6.838;2022-08-01T14:00:12;3.30;;;0.60;;
27491;SDS011;14927;51.210;6.838;2022-08-01T14:02:57;1.15;;;0.65;;
27491;SDS011;14927;51.210;6.838;2022-08-01T14:05:42;1.20;;;0.70;;
27491;SDS011;14927;51.210;6.838;2022-08-01T14:08:27;1.98;;;1.02;;
27491;SDS011;14927;51.210;6.838;2022-08-01T14:11:12;5.53;;;0.80;;
27491;SDS011;14927;51.210;6.838;2022-08-01T14:13:56;2.45;;;0.80;;
27491;SDS011;14927;51.210;6.838;2022-08-01T14:16:41;2.10;;;1.00;;
27491;SDS011;14927;51.210;6.838;2022-08-01T14:19:28;3.92;;;0.80;;
27491;SDS011;14927;51.210;6.838;2022-08-01T14:22:13;4.35;;;0.82;;
27491;SDS011;14927;51.210;6.838;2022-08-01T14:25:00;0.85;;;0.70;;
27491;SDS011;14927;51.210;6.838;2022-08-01T14:27:45;1.33;;;0.95;;
27491;SDS011;14927;51.210;6.838;2022-08-01T14:30:38;0.98;;;0.88;;
27491;SDS011;14927;51.210;6.838;2022-08-01T14:33:25;0.73;;;0.60;;
27491;SDS011;14927;51.210;6.838;2022-08-01T14:36:10;1.23;;;0.52;;
27491;SDS011;14927;51.210;6.838;2022-08-01T14:38:54;2.05;;;0.88;;
27491;SDS011;14927;51.210;6.838;2022-08-01T14:41:39;2.22;;;0.68;;
27491;SDS011;14927;51.210;6.838;2022-08-01T14:44:23;1.35;;;0.77;;
27491;SDS011;14927;51.210;6.838;2022-08-01T14:47:08;0.93;;;0.70;;
27491;SDS011;14927;51.210;6.838;2022-08-01T14:49:53;5.30;;;0.80;;
27491;SDS011;14927;51.210;6.838;2022-08-01T14:52:38;2.85;;;0.93;;
27491;SDS011;14927;51.210;6.838;2022-08-01T14:55:23;2.00;;;1.05;;
27491;SDS011;14927;51.210;6.838;2022-08-01T14:58:10;1.85;;;0.70;;
27491;SDS011;14927;51.210;6.838;2022-08-01T15:00:54;1.35;;;0.85;;
27491;SDS011;14927;51.210;6.838;2022-08-01T15:03:39;1.95;;;0.85;;
27491;SDS011;14927;51.210;6.838;2022-08-01T15:06:24;1.73;;;0.82;;
27491;SDS011;14927;51.210;6.838;2022-08-01T15:09:09;1.13;;;0.70;;
27491;SDS011;14927;51.210;6.838;2022-08-01T15:11:53;2.33;;;1.27;;
27491;SDS011;14927;51.210;6.838;2022-08-01T15:14:38;3.28;;;0.93;;
27491;SDS011;14927;51.210;6.838;2022-08-01T15:17:32;1.25;;;1.10;;
27491;SDS011;14927;51.210;6.838;2022-08-01T15:20:17;3.33;;;0.98;;
27491;SDS011;14927;51.210;6.838;2022-08-01T15:23:01;3.15;;;1.00;;
27491;SDS011;14927;51.210;6.838;2022-08-01T15:25:46;1.25;;;0.95;;
27491;SDS011;14927;51.210;6.838;2022-08-01T15:28:30;5.97;;;0.93;;
27491;SDS011;14927;51.210;6.838;2022-08-01T15:31:15;1.48;;;1.08;;
27491;SDS011;14927;51.210;6.838;2022-08-01T15:34:00;3.08;;;1.02;;
27491;SDS011;14927;51.210;6.838;2022-08-01T15:36:44;1.80;;;0.80;;
27491;SDS011;14927;51.210;6.838;2022-08-01T15:39:29;6.53;;;1.05;;
27491;SDS011;14927;51.210;6.838;2022-08-01T15:42:17;2.95;;;1.00;;
27491;SDS011;14927;51.210;6.838;2022-08-01T15:45:02;2.40;;;0.85;;
27491;SDS011;14927;51.210;6.838;2022-08-01T15:47:47;6.50;;;1.10;;
27491;SDS011;14927;51.210;6.838;2022-08-01T15:50:32;2.30;;;0.88;;
27491;SDS011;14927;51.210;6.838;2022-08-01T15:53:17;5.40;;;1.05;;
27491;SDS011;14927;51.210;6.838;2022-08-01T15:56:02;1.40;;;0.98;;
27491;SDS011;14927;51.210;6.838;2022-08-01T15:58:46;1.15;;;1.05;;
27491;SDS011;14927;51.210;6.838;2022-08-01T16:01:31;2.53;;;1.08;;
27491;SDS011;14927;51.210;6.838;2022-08-01T16:04:16;4.30;;;1.50;;
27491;SDS011;14927;51.210;6.838;2022-08-01T16:07:01;3.20;;;1.20;;
27491;SDS011;14927;51.210;6.838;2022-08-01T16:09:46;2.03;;;1.10;;
27491;SDS011;14927;51.210;6.838;2022-08-01T16:12:31;2.35;;;1.35;;
27491;SDS011;14927;51.210;6.838;2022-08-01T16:15:15;1.02;;;0.75;;
27491;SDS011;14927;51.210;6.838;2022-08-01T16:18:00;2.75;;;0.80;;
27491;SDS011;14927;51.210;6.838;2022-08-01T16:20:45;2.92;;;1.17;;
27491;SDS011;14927;51.210;6.838;2022-08-01T16:23:29;2.50;;;0.90;;
27491;SDS011;14927;51.210;6.838;2022-08-01T16:26:14;1.63;;;0.90;;
27491;SDS011;14927;51.210;6.838;2022-08-01T16:28:59;1.02;;;0.73;;
27491;SDS011;14927;51.210;6.838;2022-08-01T16:31:44;1.52;;;1.02;;
27491;SDS011;14927;51.210;6.838;2022-08-01T16:34:28;1.60;;;1.00;;
27491;SDS011;14927;51.210;6.838;2022-08-01T16:37:13;2.80;;;1.10;;
27491;SDS011;14927;51.210;6.838;2022-08-01T16:39:58;1.70;;;0.98;;
27491;SDS011;14927;51.210;6.838;2022-08-01T16:42:43;1.40;;;1.13;;
27491;SDS011;14927;51.210;6.838;2022-08-01T16:45:27;3.22;;;1.00;;
27491;SDS011;14927;51.210;6.838;2022-08-01T16:48:13;2.63;;;1.05;;
27491;SDS011;14927;51.210;6.838;2022-08-01T16:50:58;0.82;;;0.70;;
27491;SDS011;14927;51.210;6.838;2022-08-01T16:53:43;0.90;;;0.60;;
27491;SDS011;14927;51.210;6.838;2022-08-01T16:56:28;1.60;;;0.85;;
27491;SDS011;14927;51.210;6.838;2022-08-01T16:59:13;1.40;;;0.80;;
27491;SDS011;14927;51.210;6.838;2022-08-01T17:01:58;2.97;;;1.10;;
27491;SDS011;14927;51.210;6.838;2022-08-01T17:04:44;2.15;;;0.80;;
27491;SDS011;14927;51.210;6.838;2022-08-01T17:07:29;2.88;;;0.70;;
27491;SDS011;14927;51.210;6.838;2022-08-01T17:10:14;1.30;;;0.90;;
27491;SDS011;14927;51.210;6.838;2022-08-01T17:12:59;1.40;;;0.60;;
27491;SDS011;14927;51.210;6.838;2022-08-01T17:15:44;1.85;;;0.65;;
27491;SDS011;14927;51.210;6.838;2022-08-01T17:18:30;0.63;;;0.60;;